Sheldonville, Massachusetts
Current Conditions -  °F | °C
As of 6:15 PM on Thursday 27 Nov 2014 (Local Time) from KSFZ Reporting Station
Overcast Overcast  
Wind Chill: 26°   Ceiling: 2300
Heat Index: 32°   Visibility: 3mi
Dew Point: 23°   Wind: 6mph
Humidity: 69%   Direction: 350°N
Pressure: 29.97"   Gusts: NA
Location:  42.03°N, 71.39°W
Report Text: KSFZ 272315Z 35005KT 3SM BKN023 OVC029 00/M05 A2997 RMK AO1
Loading
Personal Weather Stations






























Interactive Weather Map New forecast layout! Learn more

10-Day Weather Forecast

Advertisements
Track Severe Weather on mobile